sensor_id;sensor_type;location;lat;lon;timestamp;P1;P2;P0
55754;PMS5003;41674;52.290;-1.474;2024-02-16T00:00:43;9;9;
55754;PMS5003;41674;52.290;-1.474;2024-02-16T00:03:00;11;8;
55754;PMS5003;41674;52.290;-1.474;2024-02-16T00:05:17;11;10;
55754;PMS5003;41674;52.290;-1.474;2024-02-16T00:08:01;12;11;
55754;PMS5003;41674;52.290;-1.474;2024-02-16T00:10:18;11;11;
55754;PMS5003;41674;52.290;-1.474;2024-02-16T00:12:51;14;13;
55754;PMS5003;41674;52.290;-1.474;2024-02-16T00:17:54;10;9;
55754;PMS5003;41674;52.290;-1.474;2024-02-16T00:22:41;13;9;
55754;PMS5003;41674;52.290;-1.474;2024-02-16T00:25:15;11;10;
55754;PMS5003;41674;52.290;-1.474;2024-02-16T00:27:51;10;10;
55754;PMS5003;41674;52.290;-1.474;2024-02-16T00:32:43;11;11;
55754;PMS5003;41674;52.290;-1.474;2024-02-16T00:35:11;9;9;
55754;PMS5003;41674;52.290;-1.474;2024-02-16T00:37:47;12;10;
55754;PMS5003;41674;52.290;-1.474;2024-02-16T00:40:14;9;9;
55754;PMS5003;41674;52.290;-1.474;2024-02-16T00:42:46;8;8;
55754;PMS5003;41674;52.290;-1.474;2024-02-16T00:45:21;7;7;
55754;PMS5003;41674;52.290;-1.474;2024-02-16T00:47:47;8;7;
55754;PMS5003;41674;52.290;-1.474;2024-02-16T00:50:19;6;6;
55754;PMS5003;41674;52.290;-1.474;2024-02-16T00:52:51;6;6;
55754;PMS5003;41674;52.290;-1.474;2024-02-16T00:55:22;5;5;
55754;PMS5003;41674;52.290;-1.474;2024-02-16T00:57:49;7;7;
55754;PMS5003;41674;52.290;-1.474;2024-02-16T01:00:14;6;6;
55754;PMS5003;41674;52.290;-1.474;2024-02-16T01:05:24;5;5;
55754;PMS5003;41674;52.290;-1.474;2024-02-16T01:07:49;8;8;
55754;PMS5003;41674;52.290;-1.474;2024-02-16T01:10:15;7;7;
55754;PMS5003;41674;52.290;-1.474;2024-02-16T01:12:49;8;7;
55754;PMS5003;41674;52.290;-1.474;2024-02-16T01:15:26;7;7;
55754;PMS5003;41674;52.290;-1.474;2024-02-16T01:17:57;5;5;
55754;PMS5003;41674;52.290;-1.474;2024-02-16T01:20:24;4;4;
55754;PMS5003;41674;52.290;-1.474;2024-02-16T01:22:56;6;6;
55754;PMS5003;41674;52.290;-1.474;2024-02-16T01:25:29;6;5;
55754;PMS5003;41674;52.290;-1.474;2024-02-16T01:27:56;3;3;
55754;PMS5003;41674;52.290;-1.474;2024-02-16T01:30:28;3;3;
55754;PMS5003;41674;52.290;-1.474;2024-02-16T01:32:54;3;2;
55754;PMS5003;41674;52.290;-1.474;2024-02-16T01:35:31;3;2;
55754;PMS5003;41674;52.290;-1.474;2024-02-16T01:37:58;1;1;
55754;PMS5003;41674;52.290;-1.474;2024-02-16T01:40:33;1;1;
55754;PMS5003;41674;52.290;-1.474;2024-02-16T01:43:00;2;2;
55754;PMS5003;41674;52.290;-1.474;2024-02-16T01:45:30;3;3;
55754;PMS5003;41674;52.290;-1.474;2024-02-16T01:47:51;3;2;
55754;PMS5003;41674;52.290;-1.474;2024-02-16T01:50:27;3;3;
55754;PMS5003;41674;52.290;-1.474;2024-02-16T01:53:00;2;2;
55754;PMS5003;41674;52.290;-1.474;2024-02-16T01:55:30;4;3;
55754;PMS5003;41674;52.290;-1.474;2024-02-16T01:57:59;2;2;
55754;PMS5003;41674;52.290;-1.474;2024-02-16T02:05:27;3;3;
55754;PMS5003;41674;52.290;-1.474;2024-02-16T02:07:56;3;3;
55754;PMS5003;41674;52.290;-1.474;2024-02-16T02:10:26;2;2;
55754;PMS5003;41674;52.290;-1.474;2024-02-16T02:12:58;3;3;
55754;PMS5003;41674;52.290;-1.474;2024-02-16T02:15:18;2;2;
55754;PMS5003;41674;52.290;-1.474;2024-02-16T02:17:48;2;2;
55754;PMS5003;41674;52.290;-1.474;2024-02-16T02:20:17;3;3;
55754;PMS5003;41674;52.290;-1.474;2024-02-16T02:22:47;4;3;
55754;PMS5003;41674;52.290;-1.474;2024-02-16T02:25:16;5;5;
55754;PMS5003;41674;52.290;-1.474;2024-02-16T02:27:46;6;5;
55754;PMS5003;41674;52.290;-1.474;2024-02-16T02:30:16;3;2;
55754;PMS5003;41674;52.290;-1.474;2024-02-16T02:32:45;4;3;
55754;PMS5003;41674;52.290;-1.474;2024-02-16T02:35:16;3;3;
55754;PMS5003;41674;52.290;-1.474;2024-02-16T02:37:44;3;2;
55754;PMS5003;41674;52.290;-1.474;2024-02-16T02:40:14;5;4;
55754;PMS5003;41674;52.290;-1.474;2024-02-16T02:42:44;7;4;
55754;PMS5003;41674;52.290;-1.474;2024-02-16T02:45:13;3;3;
55754;PMS5003;41674;52.290;-1.474;2024-02-16T02:47:43;1;1;
55754;PMS5003;41674;52.290;-1.474;2024-02-16T02:50:13;5;5;
55754;PMS5003;41674;52.290;-1.474;2024-02-16T02:52:43;5;5;
55754;PMS5003;41674;52.290;-1.474;2024-02-16T02:55:11;5;5;
55754;PMS5003;41674;52.290;-1.474;2024-02-16T02:57:41;4;4;
55754;PMS5003;41674;52.290;-1.474;2024-02-16T03:00:11;6;6;
55754;PMS5003;41674;52.290;-1.474;2024-02-16T03:02:47;3;3;
55754;PMS5003;41674;52.290;-1.474;2024-02-16T03:05:10;6;6;
55754;PMS5003;41674;52.290;-1.474;2024-02-16T03:07:39;6;6;
55754;PMS5003;41674;52.290;-1.474;2024-02-16T03:10:09;5;5;
55754;PMS5003;41674;52.290;-1.474;2024-02-16T03:12:38;4;4;
55754;PMS5003;41674;52.290;-1.474;2024-02-16T03:15:11;7;6;
55754;PMS5003;41674;52.290;-1.474;2024-02-16T03:17:43;10;8;
55754;PMS5003;41674;52.290;-1.474;2024-02-16T03:20:07;11;7;
55754;PMS5003;41674;52.290;-1.474;2024-02-16T03:22:37;9;7;
55754;PMS5003;41674;52.290;-1.474;2024-02-16T03:25:06;8;7;
55754;PMS5003;41674;52.290;-1.474;2024-02-16T03:27:38;6;6;
55754;PMS5003;41674;52.290;-1.474;2024-02-16T03:30:06;6;6;
55754;PMS5003;41674;52.290;-1.474;2024-02-16T03:32:35;5;4;
55754;PMS5003;41674;52.290;-1.474;2024-02-16T03:35:05;5;5;
55754;PMS5003;41674;52.290;-1.474;2024-02-16T03:37:34;6;3;
55754;PMS5003;41674;52.290;-1.474;2024-02-16T03:40:04;4;4;
55754;PMS5003;41674;52.290;-1.474;2024-02-16T03:42:33;4;4;
55754;PMS5003;41674;52.290;-1.474;2024-02-16T03:45:04;4;4;
55754;PMS5003;41674;52.290;-1.474;2024-02-16T03:47:34;4;3;
55754;PMS5003;41674;52.290;-1.474;2024-02-16T03:50:03;5;4;
55754;PMS5003;41674;52.290;-1.474;2024-02-16T03:52:31;3;3;
55754;PMS5003;41674;52.290;-1.474;2024-02-16T03:55:01;2;2;
55754;PMS5003;41674;52.290;-1.474;2024-02-16T03:57:32;3;3;
55754;PMS5003;41674;52.290;-1.474;2024-02-16T04:00:00;3;3;
55754;PMS5003;41674;52.290;-1.474;2024-02-16T04:02:30;2;2;
55754;PMS5003;41674;52.290;-1.474;2024-02-16T04:04:59;3;2;
55754;PMS5003;41674;52.290;-1.474;2024-02-16T04:07:29;1;1;
55754;PMS5003;41674;52.290;-1.474;2024-02-16T04:09:58;1;1;
55754;PMS5003;41674;52.290;-1.474;2024-02-16T04:12:33;2;1;
55754;PMS5003;41674;52.290;-1.474;2024-02-16T04:15:00;4;3;
55754;PMS5003;41674;52.290;-1.474;2024-02-16T04:17:27;3;2;
55754;PMS5003;41674;52.290;-1.474;2024-02-16T04:19:57;3;3;
55754;PMS5003;41674;52.290;-1.474;2024-02-16T04:22:26;2;2;
55754;PMS5003;41674;52.290;-1.474;2024-02-16T04:24:56;1;1;
55754;PMS5003;41674;52.290;-1.474;2024-02-16T04:27:26;1;1;
55754;PMS5003;41674;52.290;-1.474;2024-02-16T04:29:55;3;3;
55754;PMS5003;41674;52.290;-1.474;2024-02-16T04:32:30;4;3;
55754;PMS5003;41674;52.290;-1.474;2024-02-16T04:34:54;3;2;
55754;PMS5003;41674;52.290;-1.474;2024-02-16T04:37:24;2;2;
55754;PMS5003;41674;52.290;-1.474;2024-02-16T04:39:58;2;2;
55754;PMS5003;41674;52.290;-1.474;2024-02-16T04:42:23;2;2;
55754;PMS5003;41674;52.290;-1.474;2024-02-16T04:44:52;2;2;
55754;PMS5003;41674;52.290;-1.474;2024-02-16T04:47:22;0;0;
55754;PMS5003;41674;52.290;-1.474;2024-02-16T04:49:52;3;3;
55754;PMS5003;41674;52.290;-1.474;2024-02-16T04:52:21;2;2;
55754;PMS5003;41674;52.290;-1.474;2024-02-16T04:54:51;4;3;
55754;PMS5003;41674;52.290;-1.474;2024-02-16T04:57:24;2;2;
55754;PMS5003;41674;52.290;-1.474;2024-02-16T04:59:51;2;2;
55754;PMS5003;41674;52.290;-1.474;2024-02-16T05:02:21;3;3;
55754;PMS5003;41674;52.290;-1.474;2024-02-16T05:04:50;3;2;
55754;PMS5003;41674;52.290;-1.474;2024-02-16T05:07:19;1;1;
55754;PMS5003;41674;52.290;-1.474;2024-02-16T05:09:48;2;2;
55754;PMS5003;41674;52.290;-1.474;2024-02-16T05:12:18;1;1;
55754;PMS5003;41674;52.290;-1.474;2024-02-16T05:14:48;1;1;
55754;PMS5003;41674;52.290;-1.474;2024-02-16T05:17:17;3;3;
55754;PMS5003;41674;52.290;-1.474;2024-02-16T05:19:48;2;2;
55754;PMS5003;41674;52.290;-1.474;2024-02-16T05:22:16;2;2;
55754;PMS5003;41674;52.290;-1.474;2024-02-16T05:24:47;2;1;
55754;PMS5003;41674;52.290;-1.474;2024-02-16T05:27:16;4;2;
55754;PMS5003;41674;52.290;-1.474;2024-02-16T05:29:47;6;4;
55754;PMS5003;41674;52.290;-1.474;2024-02-16T05:32:15;3;2;
55754;PMS5003;41674;52.290;-1.474;2024-02-16T05:34:45;5;5;
55754;PMS5003;41674;52.290;-1.474;2024-02-16T05:37:16;1;1;
55754;PMS5003;41674;52.290;-1.474;2024-02-16T05:39:49;4;2;
55754;PMS5003;41674;52.290;-1.474;2024-02-16T05:42:13;3;3;
55754;PMS5003;41674;52.290;-1.474;2024-02-16T05:44:43;2;2;
55754;PMS5003;41674;52.290;-1.474;2024-02-16T05:47:13;2;1;
55754;PMS5003;41674;52.290;-1.474;2024-02-16T05:49:48;5;3;
55754;PMS5003;41674;52.290;-1.474;2024-02-16T05:52:11;4;3;
55754;PMS5003;41674;52.290;-1.474;2024-02-16T05:54:42;5;4;
55754;PMS5003;41674;52.290;-1.474;2024-02-16T05:57:11;5;4;
55754;PMS5003;41674;52.290;-1.474;2024-02-16T05:59:41;6;3;
55754;PMS5003;41674;52.290;-1.474;2024-02-16T06:02:10;5;4;
55754;PMS5003;41674;52.290;-1.474;2024-02-16T06:04:41;2;2;
55754;PMS5003;41674;52.290;-1.474;2024-02-16T06:07:09;2;2;
55754;PMS5003;41674;52.290;-1.474;2024-02-16T06:09:38;4;3;
55754;PMS5003;41674;52.290;-1.474;2024-02-16T06:12:08;4;2;
55754;PMS5003;41674;52.290;-1.474;2024-02-16T06:14:38;3;2;
55754;PMS5003;41674;52.290;-1.474;2024-02-16T06:17:08;4;3;
55754;PMS5003;41674;52.290;-1.474;2024-02-16T06:19:43;5;4;
55754;PMS5003;41674;52.290;-1.474;2024-02-16T06:22:07;4;3;
55754;PMS5003;41674;52.290;-1.474;2024-02-16T06:24:36;4;4;
55754;PMS5003;41674;52.290;-1.474;2024-02-16T06:27:06;2;2;
55754;PMS5003;41674;52.290;-1.474;2024-02-16T06:29:37;2;2;
55754;PMS5003;41674;52.290;-1.474;2024-02-16T06:32:06;3;2;
55754;PMS5003;41674;52.290;-1.474;2024-02-16T06:34:35;4;4;
55754;PMS5003;41674;52.290;-1.474;2024-02-16T06:37:09;3;1;
55754;PMS5003;41674;52.290;-1.474;2024-02-16T06:39:34;6;4;
55754;PMS5003;41674;52.290;-1.474;2024-02-16T06:42:04;3;1;
55754;PMS5003;41674;52.290;-1.474;2024-02-16T06:44:33;5;4;
55754;PMS5003;41674;52.290;-1.474;2024-02-16T06:47:04;4;3;
55754;PMS5003;41674;52.290;-1.474;2024-02-16T06:49:50;5;5;
55754;PMS5003;41674;52.290;-1.474;2024-02-16T06:52:15;5;3;
55754;PMS5003;41674;52.290;-1.474;2024-02-16T06:54:48;6;4;
55754;PMS5003;41674;52.290;-1.474;2024-02-16T06:57:19;6;5;
55754;PMS5003;41674;52.290;-1.474;2024-02-16T06:59:48;5;5;
55754;PMS5003;41674;52.290;-1.474;2024-02-16T07:02:24;6;6;
55754;PMS5003;41674;52.290;-1.474;2024-02-16T07:04:53;4;4;
55754;PMS5003;41674;52.290;-1.474;2024-02-16T07:07:13;8;5;
55754;PMS5003;41674;52.290;-1.474;2024-02-16T07:09:58;2;2;
55754;PMS5003;41674;52.290;-1.474;2024-02-16T07:12:22;4;3;
55754;PMS5003;41674;52.290;-1.474;2024-02-16T07:14:51;6;5;
55754;PMS5003;41674;52.290;-1.474;2024-02-16T07:17:28;5;4;
55754;PMS5003;41674;52.290;-1.474;2024-02-16T07:20:01;4;3;
55754;PMS5003;41674;52.290;-1.474;2024-02-16T07:22:33;7;4;
55754;PMS5003;41674;52.290;-1.474;2024-02-16T07:24:55;5;2;
55754;PMS5003;41674;52.290;-1.474;2024-02-16T07:27:37;2;2;
55754;PMS5003;41674;52.290;-1.474;2024-02-16T07:29:58;3;3;
55754;PMS5003;41674;52.290;-1.474;2024-02-16T07:32:29;3;3;
55754;PMS5003;41674;52.290;-1.474;2024-02-16T07:34:55;3;3;
55754;PMS5003;41674;52.290;-1.474;2024-02-16T07:37:30;2;2;
55754;PMS5003;41674;52.290;-1.474;2024-02-16T07:40:02;4;3;
55754;PMS5003;41674;52.290;-1.474;2024-02-16T07:42:26;3;3;
55754;PMS5003;41674;52.290;-1.474;2024-02-16T07:45:02;3;3;
55754;PMS5003;41674;52.290;-1.474;2024-02-16T07:47:27;4;3;
55754;PMS5003;41674;52.290;-1.474;2024-02-16T07:49:55;5;5;
55754;PMS5003;41674;52.290;-1.474;2024-02-16T07:52:24;4;4;
55754;PMS5003;41674;52.290;-1.474;2024-02-16T07:54:55;5;4;
55754;PMS5003;41674;52.290;-1.474;2024-02-16T07:57:43;4;4;
55754;PMS5003;41674;52.290;-1.474;2024-02-16T08:00:01;4;4;
55754;PMS5003;41674;52.290;-1.474;2024-02-16T08:02:27;4;4;
55754;PMS5003;41674;52.290;-1.474;2024-02-16T08:04:54;6;5;
55754;PMS5003;41674;52.290;-1.474;2024-02-16T08:10:03;5;4;
55754;PMS5003;41674;52.290;-1.474;2024-02-16T08:12:29;4;4;
55754;PMS5003;41674;52.290;-1.474;2024-02-16T08:15:06;6;5;
55754;PMS5003;41674;52.290;-1.474;2024-02-16T08:17:32;6;4;
55754;PMS5003;41674;52.290;-1.474;2024-02-16T08:20:16;4;4;
55754;PMS5003;41674;52.290;-1.474;2024-02-16T08:25:01;6;6;
55754;PMS5003;41674;52.290;-1.474;2024-02-16T08:27:42;3;3;
55754;PMS5003;41674;52.290;-1.474;2024-02-16T08:30:03;5;3;
55754;PMS5003;41674;52.290;-1.474;2024-02-16T08:32:34;2;1;
55754;PMS5003;41674;52.290;-1.474;2024-02-16T08:35:03;4;2;
55754;PMS5003;41674;52.290;-1.474;2024-02-16T08:37:34;5;4;
55754;PMS5003;41674;52.290;-1.474;2024-02-16T08:40:06;3;3;
55754;PMS5003;41674;52.290;-1.474;2024-02-16T08:42:42;5;3;
55754;PMS5003;41674;52.290;-1.474;2024-02-16T08:45:05;1;1;
55754;PMS5003;41674;52.290;-1.474;2024-02-16T08:47:39;3;3;
55754;PMS5003;41674;52.290;-1.474;2024-02-16T08:50:09;5;4;
55754;PMS5003;41674;52.290;-1.474;2024-02-16T08:52:49;4;3;
55754;PMS5003;41674;52.290;-1.474;2024-02-16T09:00:14;3;3;
55754;PMS5003;41674;52.290;-1.474;2024-02-16T09:02:41;4;4;
55754;PMS5003;41674;52.290;-1.474;2024-02-16T09:05:14;2;2;
55754;PMS5003;41674;52.290;-1.474;2024-02-16T09:07:49;4;3;
55754;PMS5003;41674;52.290;-1.474;2024-02-16T09:10:21;0;0;
55754;PMS5003;41674;52.290;-1.474;2024-02-16T09:12:42;4;3;
55754;PMS5003;41674;52.290;-1.474;2024-02-16T09:15:22;1;1;
55754;PMS5003;41674;52.290;-1.474;2024-02-16T09:20:21;2;2;
55754;PMS5003;41674;52.290;-1.474;2024-02-16T09:22:58;1;0;
55754;PMS5003;41674;52.290;-1.474;2024-02-16T09:25:20;2;2;
55754;PMS5003;41674;52.290;-1.474;2024-02-16T09:28:04;2;2;
55754;PMS5003;41674;52.290;-1.474;2024-02-16T09:30:25;2;2;
55754;PMS5003;41674;52.290;-1.474;2024-02-16T09:32:53;3;2;
55754;PMS5003;41674;52.290;-1.474;2024-02-16T09:35:25;1;1;
55754;PMS5003;41674;52.290;-1.474;2024-02-16T09:37:59;4;3;
55754;PMS5003;41674;52.290;-1.474;2024-02-16T09:40:32;1;1;
55754;PMS5003;41674;52.290;-1.474;2024-02-16T09:43:20;2;2;
55754;PMS5003;41674;52.290;-1.474;2024-02-16T09:45:38;1;1;
55754;PMS5003;41674;52.290;-1.474;2024-02-16T09:48:08;0;0;
55754;PMS5003;41674;52.290;-1.474;2024-02-16T09:50:37;1;1;
55754;PMS5003;41674;52.290;-1.474;2024-02-16T09:53:21;3;0;
55754;PMS5003;41674;52.290;-1.474;2024-02-16T09:55:42;1;1;
55754;PMS5003;41674;52.290;-1.474;2024-02-16T09:58:31;0;0;
55754;PMS5003;41674;52.290;-1.474;2024-02-16T10:03:29;1;1;
55754;PMS5003;41674;52.290;-1.474;2024-02-16T10:08:46;3;1;
55754;PMS5003;41674;52.290;-1.474;2024-02-16T11:13:18;1;0;
55754;PMS5003;41674;52.290;-1.474;2024-02-16T11:20:05;1;0;
55754;PMS5003;41674;52.290;-1.474;2024-02-16T11:23:04;1;1;
55754;PMS5003;41674;52.290;-1.474;2024-02-16T11:25:38;1;1;
55754;PMS5003;41674;52.290;-1.474;2024-02-16T11:30:56;0;0;
55754;PMS5003;41674;52.290;-1.474;2024-02-16T11:33:16;1;1;
55754;PMS5003;41674;52.290;-1.474;2024-02-16T11:35:35;0;0;
55754;PMS5003;41674;52.290;-1.474;2024-02-16T11:38:05;1;1;
55754;PMS5003;41674;52.290;-1.474;2024-02-16T11:40:43;2;0;
55754;PMS5003;41674;52.290;-1.474;2024-02-16T11:50:46;3;3;
55754;PMS5003;41674;52.290;-1.474;2024-02-16T11:53:26;0;0;
55754;PMS5003;41674;52.290;-1.474;2024-02-16T11:55:45;1;1;
55754;PMS5003;41674;52.290;-1.474;2024-02-16T11:58:15;6;5;
55754;PMS5003;41674;52.290;-1.474;2024-02-16T12:00:52;6;3;
55754;PMS5003;41674;52.290;-1.474;2024-02-16T12:03:27;3;2;
